sensor_id;sensor_type;location;lat;lon;timestamp;pressure;altitude;pressure_sealevel;temperature;humidity
7480;BME280;3781;42.272;22.658;2023-09-19T00:00:30;94806.56;;;14.76;nan
7480;BME280;3781;42.272;22.658;2023-09-19T00:02:59;94805.47;;;14.61;nan
7480;BME280;3781;42.272;22.658;2023-09-19T00:05:28;94794.53;;;14.40;nan
7480;BME280;3781;42.272;22.658;2023-09-19T00:07:56;94723.41;;;13.85;nan
7480;BME280;3781;42.272;22.658;2023-09-19T00:10:24;94805.31;;;14.37;nan
7480;BME280;3781;42.272;22.658;2023-09-19T00:12:52;94737.34;;;13.94;nan
7480;BME280;3781;42.272;22.658;2023-09-19T00:15:20;94811.69;;;14.43;nan
7480;BME280;3781;42.272;22.658;2023-09-19T00:17:47;94808.63;;;14.47;nan
7480;BME280;3781;42.272;22.658;2023-09-19T00:20:14;94813.44;;;14.34;nan
7480;BME280;3781;42.272;22.658;2023-09-19T00:22:44;94668.53;;;13.42;nan
7480;BME280;3781;42.272;22.658;2023-09-19T00:25:11;94767.69;;;13.95;nan
7480;BME280;3781;42.272;22.658;2023-09-19T00:27:41;94809.09;;;14.25;nan
7480;BME280;3781;42.272;22.658;2023-09-19T00:30:09;94805.50;;;14.26;nan
7480;BME280;3781;42.272;22.658;2023-09-19T00:32:40;94804.47;;;14.19;nan
7480;BME280;3781;42.272;22.658;2023-09-19T00:35:07;94766.41;;;13.99;nan
7480;BME280;3781;42.272;22.658;2023-09-19T00:37:35;94692.94;;;13.50;nan
7480;BME280;3781;42.272;22.658;2023-09-19T00:40:04;94812.81;;;14.40;nan
7480;BME280;3781;42.272;22.658;2023-09-19T00:42:32;94702.38;;;13.87;nan
7480;BME280;3781;42.272;22.658;2023-09-19T00:44:59;94813.63;;;14.58;nan
7480;BME280;3781;42.272;22.658;2023-09-19T00:47:29;94755.22;;;14.24;nan
7480;BME280;3781;42.272;22.658;2023-09-19T00:49:56;94751.41;;;14.18;nan
7480;BME280;3781;42.272;22.658;2023-09-19T00:52:24;94686.28;;;13.56;nan
7480;BME280;3781;42.272;22.658;2023-09-19T00:54:51;94752.88;;;14.21;nan
7480;BME280;3781;42.272;22.658;2023-09-19T00:57:19;94798.19;;;14.47;nan
7480;BME280;3781;42.272;22.658;2023-09-19T00:59:49;94782.66;;;14.28;nan
7480;BME280;3781;42.272;22.658;2023-09-19T01:02:19;94759.50;;;13.90;nan
7480;BME280;3781;42.272;22.658;2023-09-19T01:04:47;94786.41;;;13.73;nan
7480;BME280;3781;42.272;22.658;2023-09-19T01:07:14;94803.28;;;13.60;nan
7480;BME280;3781;42.272;22.658;2023-09-19T01:09:41;94800.59;;;13.52;nan
7480;BME280;3781;42.272;22.658;2023-09-19T01:12:09;94754.72;;;13.32;nan
7480;BME280;3781;42.272;22.658;2023-09-19T01:14:50;94796.34;;;13.69;nan
7480;BME280;3781;42.272;22.658;2023-09-19T01:17:26;94791.94;;;13.70;nan
7480;BME280;3781;42.272;22.658;2023-09-19T01:20:08;94780.19;;;13.38;nan
7480;BME280;3781;42.272;22.658;2023-09-19T01:22:48;94797.72;;;13.28;nan
7480;BME280;3781;42.272;22.658;2023-09-19T01:28:32;94807.72;;;13.33;nan
7480;BME280;3781;42.272;22.658;2023-09-19T01:31:04;94812.50;;;13.37;nan
7480;BME280;3781;42.272;22.658;2023-09-19T01:33:55;94800.91;;;13.40;nan
7480;BME280;3781;42.272;22.658;2023-09-19T01:36:27;94812.72;;;13.44;nan
7480;BME280;3781;42.272;22.658;2023-09-19T01:38:55;94774.03;;;13.12;nan
7480;BME280;3781;42.272;22.658;2023-09-19T01:41:29;94805.56;;;13.19;nan
7480;BME280;3781;42.272;22.658;2023-09-19T01:44:01;94758.66;;;12.82;nan
7480;BME280;3781;42.272;22.658;2023-09-19T01:46:34;94720.59;;;12.62;nan
7480;BME280;3781;42.272;22.658;2023-09-19T01:49:11;94794.97;;;13.20;nan
7480;BME280;3781;42.272;22.658;2023-09-19T01:51:48;94695.09;;;12.65;nan
7480;BME280;3781;42.272;22.658;2023-09-19T01:54:24;94799.88;;;13.33;nan
7480;BME280;3781;42.272;22.658;2023-09-19T01:56:57;94804.44;;;13.48;nan
7480;BME280;3781;42.272;22.658;2023-09-19T01:59:34;94773.72;;;13.42;nan
7480;BME280;3781;42.272;22.658;2023-09-19T02:02:04;94797.00;;;13.53;nan
7480;BME280;3781;42.272;22.658;2023-09-19T02:04:34;94778.84;;;13.34;nan
7480;BME280;3781;42.272;22.658;2023-09-19T02:07:01;94701.59;;;12.79;nan
7480;BME280;3781;42.272;22.658;2023-09-19T02:09:31;94736.25;;;13.16;nan
7480;BME280;3781;42.272;22.658;2023-09-19T02:11:58;94753.72;;;13.33;nan
7480;BME280;3781;42.272;22.658;2023-09-19T02:14:25;94638.31;;;12.42;nan
7480;BME280;3781;42.272;22.658;2023-09-19T02:16:52;94785.53;;;13.19;nan
7480;BME280;3781;42.272;22.658;2023-09-19T02:19:21;94704.53;;;12.30;nan
7480;BME280;3781;42.272;22.658;2023-09-19T02:21:48;94794.34;;;12.72;nan
7480;BME280;3781;42.272;22.658;2023-09-19T02:24:15;94793.78;;;12.78;nan
7480;BME280;3781;42.272;22.658;2023-09-19T02:26:42;94717.28;;;12.33;nan
7480;BME280;3781;42.272;22.658;2023-09-19T02:29:09;94793.44;;;12.91;nan
7480;BME280;3781;42.272;22.658;2023-09-19T02:31:38;94802.19;;;12.99;nan
7480;BME280;3781;42.272;22.658;2023-09-19T02:34:05;94727.47;;;12.63;nan
7480;BME280;3781;42.272;22.658;2023-09-19T02:36:36;94790.66;;;13.11;nan
7480;BME280;3781;42.272;22.658;2023-09-19T02:39:03;94779.91;;;13.14;nan
7480;BME280;3781;42.272;22.658;2023-09-19T02:41:31;94652.28;;;12.41;nan
7480;BME280;3781;42.272;22.658;2023-09-19T02:43:58;94634.22;;;12.30;nan
7480;BME280;3781;42.272;22.658;2023-09-19T02:46:27;94696.44;;;12.69;nan
7480;BME280;3781;42.272;22.658;2023-09-19T02:48:53;94781.47;;;13.34;nan
7480;BME280;3781;42.272;22.658;2023-09-19T02:51:20;94748.31;;;12.90;nan
7480;BME280;3781;42.272;22.658;2023-09-19T02:53:49;94762.88;;;12.56;nan
7480;BME280;3781;42.272;22.658;2023-09-19T02:56:17;94785.88;;;12.70;nan
7480;BME280;3781;42.272;22.658;2023-09-19T02:58:44;94741.75;;;12.59;nan
7480;BME280;3781;42.272;22.658;2023-09-19T03:01:11;94753.19;;;12.75;nan
7480;BME280;3781;42.272;22.658;2023-09-19T03:03:38;94769.59;;;12.85;nan
7480;BME280;3781;42.272;22.658;2023-09-19T03:06:05;94712.97;;;12.51;nan
7480;BME280;3781;42.272;22.658;2023-09-19T03:08:34;94714.81;;;12.68;nan
7480;BME280;3781;42.272;22.658;2023-09-19T03:11:03;94716.72;;;12.66;nan
7480;BME280;3781;42.272;22.658;2023-09-19T03:13:31;94743.78;;;12.92;nan
7480;BME280;3781;42.272;22.658;2023-09-19T03:15:58;94712.91;;;12.70;nan
7480;BME280;3781;42.272;22.658;2023-09-19T03:18:24;94772.00;;;13.06;nan
7480;BME280;3781;42.272;22.658;2023-09-19T03:20:53;94773.09;;;13.13;nan
7480;BME280;3781;42.272;22.658;2023-09-19T03:23:20;94770.09;;;13.08;nan
7480;BME280;3781;42.272;22.658;2023-09-19T03:25:47;94697.63;;;12.48;nan
7480;BME280;3781;42.272;22.658;2023-09-19T03:28:15;94783.53;;;12.94;nan
7480;BME280;3781;42.272;22.658;2023-09-19T03:30:43;94731.88;;;12.53;nan
7480;BME280;3781;42.272;22.658;2023-09-19T03:33:10;94777.56;;;12.84;nan
7480;BME280;3781;42.272;22.658;2023-09-19T03:35:38;94782.97;;;12.73;nan
7480;BME280;3781;42.272;22.658;2023-09-19T03:38:06;94778.38;;;12.48;nan
7480;BME280;3781;42.272;22.658;2023-09-19T03:40:32;94742.41;;;12.15;nan
7480;BME280;3781;42.272;22.658;2023-09-19T03:43:00;94739.44;;;12.00;nan
7480;BME280;3781;42.272;22.658;2023-09-19T03:45:29;94747.91;;;12.02;nan
7480;BME280;3781;42.272;22.658;2023-09-19T03:47:56;94775.84;;;12.29;nan
7480;BME280;3781;42.272;22.658;2023-09-19T03:50:22;94734.75;;;12.03;nan
7480;BME280;3781;42.272;22.658;2023-09-19T03:52:49;94676.44;;;11.77;nan
7480;BME280;3781;42.272;22.658;2023-09-19T03:55:16;94779.34;;;12.47;nan
7480;BME280;3781;42.272;22.658;2023-09-19T03:57:47;94728.97;;;12.29;nan
7480;BME280;3781;42.272;22.658;2023-09-19T04:00:15;94720.44;;;12.27;nan
7480;BME280;3781;42.272;22.658;2023-09-19T04:02:48;94731.38;;;12.40;nan
7480;BME280;3781;42.272;22.658;2023-09-19T04:05:14;94723.19;;;12.35;nan
7480;BME280;3781;42.272;22.658;2023-09-19T04:07:41;94748.75;;;12.49;nan
7480;BME280;3781;42.272;22.658;2023-09-19T04:10:09;94774.97;;;12.74;nan
7480;BME280;3781;42.272;22.658;2023-09-19T04:12:37;94723.97;;;12.45;nan
7480;BME280;3781;42.272;22.658;2023-09-19T04:15:05;94653.50;;;12.09;nan
7480;BME280;3781;42.272;22.658;2023-09-19T04:17:31;94776.44;;;12.96;nan
7480;BME280;3781;42.272;22.658;2023-09-19T04:20:00;94785.22;;;13.05;nan
7480;BME280;3781;42.272;22.658;2023-09-19T04:22:27;94759.50;;;13.10;nan
7480;BME280;3781;42.272;22.658;2023-09-19T04:24:53;94757.91;;;13.26;nan
7480;BME280;3781;42.272;22.658;2023-09-19T04:27:20;94713.41;;;13.01;nan
7480;BME280;3781;42.272;22.658;2023-09-19T04:29:47;94768.91;;;13.20;nan
7480;BME280;3781;42.272;22.658;2023-09-19T04:32:18;94775.84;;;13.02;nan
7480;BME280;3781;42.272;22.658;2023-09-19T04:34:45;94684.44;;;12.59;nan
7480;BME280;3781;42.272;22.658;2023-09-19T04:37:17;94772.88;;;13.24;nan
7480;BME280;3781;42.272;22.658;2023-09-19T04:39:43;94780.03;;;13.40;nan
7480;BME280;3781;42.272;22.658;2023-09-19T04:42:15;94713.69;;;13.25;nan
7480;BME280;3781;42.272;22.658;2023-09-19T04:44:43;94787.53;;;13.88;nan
7480;BME280;3781;42.272;22.658;2023-09-19T04:47:09;94731.69;;;13.81;nan
7480;BME280;3781;42.272;22.658;2023-09-19T04:49:37;94787.53;;;14.41;nan
7480;BME280;3781;42.272;22.658;2023-09-19T04:52:05;94798.97;;;14.65;nan
7480;BME280;3781;42.272;22.658;2023-09-19T04:54:33;94784.72;;;14.85;nan
7480;BME280;3781;42.272;22.658;2023-09-19T04:57:00;94786.72;;;14.99;nan
7480;BME280;3781;42.272;22.658;2023-09-19T04:59:27;94762.56;;;15.05;nan
7480;BME280;3781;42.272;22.658;2023-09-19T05:01:55;94751.44;;;15.11;nan
7480;BME280;3781;42.272;22.658;2023-09-19T05:04:24;94762.16;;;15.26;nan
7480;BME280;3781;42.272;22.658;2023-09-19T05:06:51;94788.28;;;15.60;nan
7480;BME280;3781;42.272;22.658;2023-09-19T05:09:19;94777.03;;;15.75;nan
7480;BME280;3781;42.272;22.658;2023-09-19T05:11:47;94785.88;;;15.91;nan
7480;BME280;3781;42.272;22.658;2023-09-19T05:14:14;94764.28;;;15.80;nan
7480;BME280;3781;42.272;22.658;2023-09-19T05:16:41;94695.00;;;15.51;nan
7480;BME280;3781;42.272;22.658;2023-09-19T05:19:11;94764.13;;;15.98;nan
7480;BME280;3781;42.272;22.658;2023-09-19T05:21:38;94779.84;;;16.06;nan
7480;BME280;3781;42.272;22.658;2023-09-19T05:24:05;94781.47;;;16.07;nan
7480;BME280;3781;42.272;22.658;2023-09-19T05:26:32;94757.91;;;15.83;nan
7480;BME280;3781;42.272;22.658;2023-09-19T05:29:01;94775.41;;;15.91;nan
7480;BME280;3781;42.272;22.658;2023-09-19T05:31:29;94767.72;;;15.89;nan
7480;BME280;3781;42.272;22.658;2023-09-19T05:33:56;94775.59;;;15.81;nan
7480;BME280;3781;42.272;22.658;2023-09-19T05:36:23;94739.53;;;15.59;nan
7480;BME280;3781;42.272;22.658;2023-09-19T05:38:50;94630.44;;;14.85;nan
7480;BME280;3781;42.272;22.658;2023-09-19T05:41:18;94775.91;;;15.86;nan
7480;BME280;3781;42.272;22.658;2023-09-19T05:43:44;94778.38;;;15.88;nan
7480;BME280;3781;42.272;22.658;2023-09-19T05:46:13;94676.28;;;15.22;nan
7480;BME280;3781;42.272;22.658;2023-09-19T05:48:41;94609.19;;;14.88;nan
7480;BME280;3781;42.272;22.658;2023-09-19T05:51:09;94619.16;;;14.85;nan
7480;BME280;3781;42.272;22.658;2023-09-19T05:53:36;94649.41;;;15.03;nan
7480;BME280;3781;42.272;22.658;2023-09-19T05:56:03;94586.94;;;14.84;nan
7480;BME280;3781;42.272;22.658;2023-09-19T05:58:30;94731.53;;;15.84;nan
7480;BME280;3781;42.272;22.658;2023-09-19T06:00:58;94623.63;;;15.17;nan
7480;BME280;3781;42.272;22.658;2023-09-19T06:03:26;94593.53;;;15.13;nan
7480;BME280;3781;42.272;22.658;2023-09-19T06:05:54;94725.81;;;15.97;nan
7480;BME280;3781;42.272;22.658;2023-09-19T06:08:22;94776.56;;;16.44;nan
7480;BME280;3781;42.272;22.658;2023-09-19T06:10:53;94675.41;;;15.87;nan
7480;BME280;3781;42.272;22.658;2023-09-19T06:13:22;94746.56;;;16.47;nan
7480;BME280;3781;42.272;22.658;2023-09-19T06:15:52;94759.50;;;16.81;nan
7480;BME280;3781;42.272;22.658;2023-09-19T06:18:19;94694.47;;;16.60;nan
7480;BME280;3781;42.272;22.658;2023-09-19T06:20:50;94758.25;;;17.15;nan
7480;BME280;3781;42.272;22.658;2023-09-19T06:23:18;94710.72;;;17.02;nan
7480;BME280;3781;42.272;22.658;2023-09-19T06:25:45;94724.91;;;17.24;nan
7480;BME280;3781;42.272;22.658;2023-09-19T06:28:12;94650.25;;;16.96;nan
7480;BME280;3781;42.272;22.658;2023-09-19T06:30:40;94635.47;;;16.95;nan
7480;BME280;3781;42.272;22.658;2023-09-19T06:33:07;94741.09;;;17.66;nan
7480;BME280;3781;42.272;22.658;2023-09-19T06:35:36;94751.75;;;17.95;nan
7480;BME280;3781;42.272;22.658;2023-09-19T06:38:05;94719.97;;;17.82;nan
7480;BME280;3781;42.272;22.658;2023-09-19T06:40:34;94750.28;;;18.16;nan
7480;BME280;3781;42.272;22.658;2023-09-19T06:43:01;94756.91;;;18.12;nan
7480;BME280;3781;42.272;22.658;2023-09-19T06:45:29;94726.84;;;18.06;nan
7480;BME280;3781;42.272;22.658;2023-09-19T06:47:57;94763.88;;;18.42;nan
7480;BME280;3781;42.272;22.658;2023-09-19T06:50:26;94752.34;;;18.43;nan
7480;BME280;3781;42.272;22.658;2023-09-19T06:52:54;94757.41;;;18.67;nan
7480;BME280;3781;42.272;22.658;2023-09-19T06:55:24;94676.59;;;18.24;nan
7480;BME280;3781;42.272;22.658;2023-09-19T06:57:53;94665.44;;;18.22;nan
7480;BME280;3781;42.272;22.658;2023-09-19T07:00:20;94774.50;;;19.00;nan
7480;BME280;3781;42.272;22.658;2023-09-19T07:02:55;94773.78;;;19.06;nan
7480;BME280;3781;42.272;22.658;2023-09-19T07:05:22;94776.50;;;19.13;nan
7480;BME280;3781;42.272;22.658;2023-09-19T07:07:49;94746.91;;;18.96;nan
7480;BME280;3781;42.272;22.658;2023-09-19T07:10:16;94739.28;;;19.01;nan
7480;BME280;3781;42.272;22.658;2023-09-19T07:12:44;94690.66;;;18.68;nan
7480;BME280;3781;42.272;22.658;2023-09-19T07:15:11;94762.44;;;19.20;nan
7480;BME280;3781;42.272;22.658;2023-09-19T07:17:38;94757.28;;;19.41;nan
7480;BME280;3781;42.272;22.658;2023-09-19T07:20:06;94737.44;;;19.16;nan
7480;BME280;3781;42.272;22.658;2023-09-19T07:22:33;94744.53;;;19.30;nan
7480;BME280;3781;42.272;22.658;2023-09-19T07:25:01;94771.00;;;19.73;nan
7480;BME280;3781;42.272;22.658;2023-09-19T07:27:29;94674.81;;;19.26;nan
7480;BME280;3781;42.272;22.658;2023-09-19T07:29:57;94774.56;;;20.01;nan
7480;BME280;3781;42.272;22.658;2023-09-19T07:32:24;94658.78;;;19.42;nan
7480;BME280;3781;42.272;22.658;2023-09-19T07:34:51;94750.72;;;20.09;nan
7480;BME280;3781;42.272;22.658;2023-09-19T07:37:18;94771.69;;;20.38;nan
7480;BME280;3781;42.272;22.658;2023-09-19T07:39:44;94744.31;;;20.18;nan
7480;BME280;3781;42.272;22.658;2023-09-19T07:42:11;94775.84;;;20.47;nan
7480;BME280;3781;42.272;22.658;2023-09-19T07:44:43;94766.53;;;20.51;nan
7480;BME280;3781;42.272;22.658;2023-09-19T07:47:13;94790.47;;;20.98;nan
7480;BME280;3781;42.272;22.658;2023-09-19T07:49:40;94730.34;;;21.00;nan
7480;BME280;3781;42.272;22.658;2023-09-19T07:52:07;94781.59;;;21.81;nan
7480;BME280;3781;42.272;22.658;2023-09-19T07:54:34;94776.88;;;22.50;nan
7480;BME280;3781;42.272;22.658;2023-09-19T07:57:02;94743.84;;;23.18;nan
7480;BME280;3781;42.272;22.658;2023-09-19T07:59:29;94792.25;;;24.22;nan
7480;BME280;3781;42.272;22.658;2023-09-19T08:01:55;94783.44;;;24.90;nan
7480;BME280;3781;42.272;22.658;2023-09-19T08:04:24;94787.63;;;25.22;nan
7480;BME280;3781;42.272;22.658;2023-09-19T08:06:52;94768.63;;;25.43;nan
7480;BME280;3781;42.272;22.658;2023-09-19T08:09:22;94779.41;;;25.49;nan
7480;BME280;3781;42.272;22.658;2023-09-19T08:11:49;94792.72;;;25.49;nan
7480;BME280;3781;42.272;22.658;2023-09-19T08:14:16;94771.09;;;25.38;nan
7480;BME280;3781;42.272;22.658;2023-09-19T08:16:43;94724.84;;;25.03;nan
7480;BME280;3781;42.272;22.658;2023-09-19T08:19:10;94764.00;;;25.32;nan
7480;BME280;3781;42.272;22.658;2023-09-19T08:21:38;94762.78;;;25.10;nan
7480;BME280;3781;42.272;22.658;2023-09-19T08:24:06;94729.53;;;24.83;nan
7480;BME280;3781;42.272;22.658;2023-09-19T08:26:34;94622.97;;;24.24;nan
7480;BME280;3781;42.272;22.658;2023-09-19T08:29:03;94509.88;;;23.73;nan
7480;BME280;3781;42.272;22.658;2023-09-19T08:31:35;94618.34;;;24.62;nan
7480;BME280;3781;42.272;22.658;2023-09-19T08:34:20;94678.59;;;25.04;nan
7480;BME280;3781;42.272;22.658;2023-09-19T08:36:52;94730.81;;;25.17;nan
7480;BME280;3781;42.272;22.658;2023-09-19T08:39:22;94495.06;;;23.35;nan
7480;BME280;3781;42.272;22.658;2023-09-19T08:41:49;94558.97;;;23.51;nan
7480;BME280;3781;42.272;22.658;2023-09-19T08:44:18;94702.38;;;24.25;nan
7480;BME280;3781;42.272;22.658;2023-09-19T08:46:45;94744.34;;;24.66;nan
7480;BME280;3781;42.272;22.658;2023-09-19T08:49:24;94744.16;;;24.92;nan
7480;BME280;3781;42.272;22.658;2023-09-19T08:52:03;94776.28;;;25.52;nan
7480;BME280;3781;42.272;22.658;2023-09-19T08:54:35;94576.00;;;24.85;nan
7480;BME280;3781;42.272;22.658;2023-09-19T08:57:07;94609.22;;;25.60;nan
7480;BME280;3781;42.272;22.658;2023-09-19T08:59:39;94614.06;;;25.93;nan
7480;BME280;3781;42.272;22.658;2023-09-19T09:02:11;94625.88;;;26.61;nan
7480;BME280;3781;42.272;22.658;2023-09-19T09:04:41;94482.19;;;26.20;nan
7480;BME280;3781;42.272;22.658;2023-09-19T09:07:13;94629.84;;;27.45;nan
7480;BME280;3781;42.272;22.658;2023-09-19T09:09:48;94603.66;;;27.42;nan
7480;BME280;3781;42.272;22.658;2023-09-19T09:12:15;94758.25;;;28.11;nan
7480;BME280;3781;42.272;22.658;2023-09-19T09:14:46;94537.03;;;26.21;nan
7480;BME280;3781;42.272;22.658;2023-09-19T09:17:15;94542.88;;;25.88;nan
7480;BME280;3781;42.272;22.658;2023-09-19T09:19:46;94457.00;;;25.05;nan
7480;BME280;3781;42.272;22.658;2023-09-19T09:22:17;94641.91;;;25.79;nan
7480;BME280;3781;42.272;22.658;2023-09-19T09:24:54;94658.47;;;25.81;nan
7480;BME280;3781;42.272;22.658;2023-09-19T09:27:24;94626.00;;;25.61;nan
7480;BME280;3781;42.272;22.658;2023-09-19T09:29:51;94577.72;;;25.46;nan
7480;BME280;3781;42.272;22.658;2023-09-19T09:32:24;94751.09;;;27.14;nan
7480;BME280;3781;42.272;22.658;2023-09-19T09:34:55;94589.03;;;26.58;nan
7480;BME280;3781;42.272;22.658;2023-09-19T09:37:24;94620.00;;;26.82;nan
7480;BME280;3781;42.272;22.658;2023-09-19T09:39:53;94709.44;;;27.48;nan
7480;BME280;3781;42.272;22.658;2023-09-19T09:42:32;94728.94;;;27.37;nan
7480;BME280;3781;42.272;22.658;2023-09-19T09:45:17;94723.81;;;27.24;nan
7480;BME280;3781;42.272;22.658;2023-09-19T09:47:46;94726.47;;;27.12;nan
7480;BME280;3781;42.272;22.658;2023-09-19T09:50:29;94704.13;;;27.02;nan
7480;BME280;3781;42.272;22.658;2023-09-19T09:53:23;94714.66;;;26.85;nan
7480;BME280;3781;42.272;22.658;2023-09-19T09:56:00;94662.47;;;26.31;nan
7480;BME280;3781;42.272;22.658;2023-09-19T09:58:28;94675.31;;;26.34;nan
7480;BME280;3781;42.272;22.658;2023-09-19T10:00:57;94689.84;;;26.08;nan
7480;BME280;3781;42.272;22.658;2023-09-19T10:03:33;94698.47;;;26.04;nan
7480;BME280;3781;42.272;22.658;2023-09-19T10:06:05;94636.00;;;25.47;nan
7480;BME280;3781;42.272;22.658;2023-09-19T10:08:59;94673.16;;;25.54;nan
7480;BME280;3781;42.272;22.658;2023-09-19T10:11:42;94695.63;;;25.58;nan
7480;BME280;3781;42.272;22.658;2023-09-19T10:14:10;94642.13;;;25.48;nan
7480;BME280;3781;42.272;22.658;2023-09-19T10:16:41;94622.59;;;25.54;nan
7480;BME280;3781;42.272;22.658;2023-09-19T10:19:15;94677.06;;;25.99;nan
7480;BME280;3781;42.272;22.658;2023-09-19T10:21:42;94677.84;;;26.29;nan
7480;BME280;3781;42.272;22.658;2023-09-19T10:24:13;94694.63;;;26.30;nan
7480;BME280;3781;42.272;22.658;2023-09-19T10:26:43;94670.81;;;26.05;nan
7480;BME280;3781;42.272;22.658;2023-09-19T10:29:13;94683.03;;;26.24;nan
7480;BME280;3781;42.272;22.658;2023-09-19T10:31:42;94660.50;;;25.67;nan
7480;BME280;3781;42.272;22.658;2023-09-19T10:34:14;94671.69;;;25.58;nan
7480;BME280;3781;42.272;22.658;2023-09-19T10:36:45;94681.00;;;25.49;nan
7480;BME280;3781;42.272;22.658;2023-09-19T10:39:15;94662.53;;;25.17;nan
7480;BME280;3781;42.272;22.658;2023-09-19T10:41:49;94671.63;;;25.46;nan
7480;BME280;3781;42.272;22.658;2023-09-19T10:44:21;94662.44;;;25.90;nan
7480;BME280;3781;42.272;22.658;2023-09-19T10:46:50;94649.03;;;26.49;nan
7480;BME280;3781;42.272;22.658;2023-09-19T10:49:19;94644.41;;;26.68;nan
7480;BME280;3781;42.272;22.658;2023-09-19T10:51:46;94664.03;;;26.97;nan
7480;BME280;3781;42.272;22.658;2023-09-19T10:54:17;94624.88;;;27.25;nan
7480;BME280;3781;42.272;22.658;2023-09-19T10:56:48;94632.72;;;27.83;nan
7480;BME280;3781;42.272;22.658;2023-09-19T10:59:16;94651.31;;;28.68;nan
7480;BME280;3781;42.272;22.658;2023-09-19T11:01:46;94650.16;;;29.57;nan
7480;BME280;3781;42.272;22.658;2023-09-19T11:04:24;94653.69;;;29.62;nan
7480;BME280;3781;42.272;22.658;2023-09-19T11:07:02;94622.94;;;29.43;nan
7480;BME280;3781;42.272;22.658;2023-09-19T11:09:50;94628.81;;;29.02;nan
7480;BME280;3781;42.272;22.658;2023-09-19T11:12:49;94634.16;;;28.64;nan
7480;BME280;3781;42.272;22.658;2023-09-19T11:18:53;94596.13;;;27.67;nan
7480;BME280;3781;42.272;22.658;2023-09-19T11:21:52;94626.81;;;27.81;nan
7480;BME280;3781;42.272;22.658;2023-09-19T11:24:31;94615.59;;;27.79;nan
7480;BME280;3781;42.272;22.658;2023-09-19T11:27:15;94591.13;;;27.71;nan
7480;BME280;3781;42.272;22.658;2023-09-19T11:29:44;94613.19;;;27.94;nan
7480;BME280;3781;42.272;22.658;2023-09-19T11:32:12;94597.47;;;27.81;nan
7480;BME280;3781;42.272;22.658;2023-09-19T11:34:47;94621.09;;;27.89;nan
7480;BME280;3781;42.272;22.658;2023-09-19T11:43:39;94613.13;;;27.10;nan
7480;BME280;3781;42.272;22.658;2023-09-19T11:46:07;94595.94;;;27.17;nan
7480;BME280;3781;42.272;22.658;2023-09-19T11:48:39;94527.88;;;26.52;nan
7480;BME280;3781;42.272;22.658;2023-09-19T11:51:15;94586.13;;;26.71;nan
7480;BME280;3781;42.272;22.658;2023-09-19T11:53:50;94574.66;;;26.71;nan
7480;BME280;3781;42.272;22.658;2023-09-19T11:56:18;94509.91;;;26.70;nan
7480;BME280;3781;42.272;22.658;2023-09-19T11:58:52;94565.50;;;27.30;nan
7480;BME280;3781;42.272;22.658;2023-09-19T12:01:24;94567.03;;;27.66;nan
7480;BME280;3781;42.272;22.658;2023-09-19T12:03:55;94571.34;;;27.83;nan
7480;BME280;3781;42.272;22.658;2023-09-19T12:06:24;94534.38;;;27.75;nan
7480;BME280;3781;42.272;22.658;2023-09-19T12:08:51;94486.81;;;27.72;nan
7480;BME280;3781;42.272;22.658;2023-09-19T12:11:21;94533.56;;;28.41;nan
7480;BME280;3781;42.272;22.658;2023-09-19T12:14:02;94460.56;;;28.35;nan
7480;BME280;3781;42.272;22.658;2023-09-19T12:16:31;94447.84;;;28.43;nan
7480;BME280;3781;42.272;22.658;2023-09-19T12:19:17;94330.28;;;27.83;nan
7480;BME280;3781;42.272;22.658;2023-09-19T12:21:54;94433.03;;;29.00;nan
7480;BME280;3781;42.272;22.658;2023-09-19T12:24:22;94504.53;;;30.16;nan
7480;BME280;3781;42.272;22.658;2023-09-19T12:26:52;94560.91;;;31.82;nan
7480;BME280;3781;42.272;22.658;2023-09-19T12:29:22;94553.94;;;32.41;nan
7480;BME280;3781;42.272;22.658;2023-09-19T12:31:51;94512.53;;;31.87;nan
7480;BME280;3781;42.272;22.658;2023-09-19T12:34:20;94538.53;;;31.46;nan
7480;BME280;3781;42.272;22.658;2023-09-19T12:36:48;94502.09;;;30.98;nan
7480;BME280;3781;42.272;22.658;2023-09-19T12:39:24;94550.13;;;30.95;nan
7480;BME280;3781;42.272;22.658;2023-09-19T12:41:52;94546.38;;;30.59;nan
7480;BME280;3781;42.272;22.658;2023-09-19T12:44:21;94533.13;;;30.37;nan
7480;BME280;3781;42.272;22.658;2023-09-19T12:46:50;94523.47;;;30.05;nan
7480;BME280;3781;42.272;22.658;2023-09-19T12:49:19;94509.28;;;30.09;nan
7480;BME280;3781;42.272;22.658;2023-09-19T12:51:47;94525.59;;;30.03;nan
7480;BME280;3781;42.272;22.658;2023-09-19T12:54:14;94492.47;;;29.82;nan
7480;BME280;3781;42.272;22.658;2023-09-19T12:56:43;94508.19;;;30.05;nan
7480;BME280;3781;42.272;22.658;2023-09-19T12:59:12;94514.94;;;30.13;nan
7480;BME280;3781;42.272;22.658;2023-09-19T13:01:42;94515.25;;;30.16;nan
7480;BME280;3781;42.272;22.658;2023-09-19T13:04:14;94482.22;;;29.74;nan
7480;BME280;3781;42.272;22.658;2023-09-19T13:06:43;94480.25;;;29.38;nan
7480;BME280;3781;42.272;22.658;2023-09-19T13:09:11;94506.81;;;29.44;nan
7480;BME280;3781;42.272;22.658;2023-09-19T13:11:40;94502.66;;;29.58;nan
7480;BME280;3781;42.272;22.658;2023-09-19T13:14:19;94409.69;;;29.17;nan
7480;BME280;3781;42.272;22.658;2023-09-19T13:16:59;94494.75;;;30.00;nan
7480;BME280;3781;42.272;22.658;2023-09-19T13:19:50;94508.94;;;30.74;nan
7480;BME280;3781;42.272;22.658;2023-09-19T13:22:39;94486.66;;;31.36;nan
7480;BME280;3781;42.272;22.658;2023-09-19T13:25:11;94502.38;;;31.99;nan
7480;BME280;3781;42.272;22.658;2023-09-19T13:27:41;94501.03;;;31.96;nan
7480;BME280;3781;42.272;22.658;2023-09-19T13:30:08;94495.84;;;31.65;nan
7480;BME280;3781;42.272;22.658;2023-09-19T13:32:38;94493.84;;;31.20;nan
7480;BME280;3781;42.272;22.658;2023-09-19T13:35:06;94499.38;;;30.93;nan
7480;BME280;3781;42.272;22.658;2023-09-19T13:37:34;94496.50;;;30.58;nan
7480;BME280;3781;42.272;22.658;2023-09-19T13:40:01;94491.97;;;30.22;nan
7480;BME280;3781;42.272;22.658;2023-09-19T13:42:30;94490.78;;;29.44;nan
7480;BME280;3781;42.272;22.658;2023-09-19T13:44:57;94484.41;;;29.50;nan
7480;BME280;3781;42.272;22.658;2023-09-19T13:47:24;94489.34;;;30.27;nan
7480;BME280;3781;42.272;22.658;2023-09-19T13:49:53;94407.13;;;30.32;nan
7480;BME280;3781;42.272;22.658;2023-09-19T13:52:20;94478.06;;;31.34;nan
7480;BME280;3781;42.272;22.658;2023-09-19T13:54:48;94481.38;;;32.26;nan
7480;BME280;3781;42.272;22.658;2023-09-19T13:57:15;94482.41;;;32.70;nan
7480;BME280;3781;42.272;22.658;2023-09-19T13:59:42;94471.69;;;33.24;nan